Hlavní strana
METAR-TAF:

METAR-TAF

Letiště :

Mezinárodní letiště Krále Abda al-Azíze

Džidda, Saúdská Arábie

zeměpisná šířka: 21-42N, zeměpisná délka: 039-11E, výška: 15 m

Aktuální stav počasí

Zpráva byla vytvořena před 51 minutami, v 10:00 UTC
Severoseverozápadní vítr 6 kt
Teplota 30°C
Vlhkost vzduchu 40%
Tlak 1013 hPa
Viditelnost 10 km a více
Žádná oblačnost pod 1500 m, nevyskytují se cumulonimby.

METAR: OEJN 101000Z 33006KT CAVOK 30/15 Q1013 NOSIG

Čas: 13:51 (10:51 UTC)

Předpověď počasí

Zpráva byla vytvořena před 5 hodinami a 51 minutami, v 05:00 UTC
Předpověď platná od 10 v 06 UTC do 11 v 12 UTC
Severoseverozápadní vítr 10 kt
Viditelnost 10 km a více
Žádná oblačnost pod 1500 m, nevyskytují se cumulonimby.
Změna
od 10 v 16 UTC do 10 v 18 UTC
Severovýchodní vítr 8 kt
Viditelnost 10 km a více
Skoro jasno ve výšce 4000 ft

TAF: OEJN 100500Z 1006/1112 34010KT CAVOK BECMG 1016/1018 04008KT 9999 FEW040

Stav a předpovědi počasí z více než 4 000 letišť (zprávy METAR a TAF).

Červené a žluté tečky na mapě představují dostupné meteorologické stanice.

Když kurzor umístíte na tečku, zobrazí se název stanice.

Pak kliknutím zobrazíte stav a předpověď počasí.

Chcete-li změnit mapu, kliknutím na zelené tlačítko se znaménkem +mapu přiblížíte, kliknutím na zelené tlačítko se znaménkem – mapu oddálíte a kliknutím na zelené šipky přejdete na sousední mapy.


METAR-TAF: